Monday, July 23, 2018, 12:00 AM GMT
Back to Local

CYUL, Montreal / Pierre Elliot Trudeau International Airport, Que

Location: , , Canada Lat: 45.467
Local Time: 12:00 AM GMT ( 0:00 GMT) Lon: -73.75
Time Zone: GMT Elev: 101 ft

Show me the last for .
Show Coded

Time T Td Feel RH Dir Speed Gust Alt SLP Vis Weather Sky Remarks
2018-07-22 23:00 79 68 82 69 60° 7 - 30.00 30.01 15 FEW040 BKN070 BKN150 None
2018-07-22 22:00 79 68 82 69 70° 12 - 30.00 30.00 15 BKN035 BKN060 None
2018-07-22 21:00 75 66 78 73 30° 15 - 30.00 30.01 15 SCT025 BKN120 BKN240 None
2018-07-22 20:00 73 64 77 73 60° 10 - 30.02 30.03 15 BKN022 None
2018-07-22 19:00 72 64 76 78 70° 17 23 30.01 30.01 15 FEW012 SCT020 BKN130 BKN240 Pressure falling rapidly
2018-07-22 18:16 68 63 - 82 60° 15 - 30.03 30.04 15 FEW015 FEW040 SCT120 BKN240 None
2018-07-22 18:00 66 63 - 88 60° 12 - 30.04 30.05 15 -RA FEW040 BKN120 BKN240 None
2018-07-22 17:00 64 61 - 88 60° 14 22 30.04 30.05 7 -RA BKN040 OVC060 None
2018-07-22 16:00 64 61 - 88 50° 14 - 30.05 30.05 7 -RA BKN048 OVC065 None
2018-07-22 15:00 64 59 - 82 40° 12 17 30.06 30.07 8 -RA FEW040 OVC068 None
2018-07-22 14:00 68 57 - 68 50° 10 - 30.06 30.06 10 -SHRA SCT055 OVC085 None
2018-07-22 13:00 70 52 - 52 80° 7 - 30.05 30.06 30 -SHRA BKN055 BKN090 OVC220 None
2018-07-22 12:36 70 50 - 49 80° 9 - 30.05 30.05 30 -SHRA BKN060 BKN090 OVC220 None
2018-07-22 12:00 70 50 - 49 80° 14 - 30.03 30.04 30 VCSH FEW075 BKN093 OVC220 None
2018-07-22 11:00 70 52 - 52 80° 9 - 30.03 30.04 30 SCT075 SCT120 OVC250 None
2018-07-22 10:00 68 52 - 56 100° 7 - 30.03 30.04 30 FEW080 FEW120 OVC250 None
2018-07-22 09:00 68 54 - 60 120° 12 - 30.03 30.03 15 FEW180 BKN250 None
2018-07-22 08:00 68 54 - 60 110° 8 - 30.03 30.04 15 BKN250 None
2018-07-22 07:00 70 52 - 52 130° 10 17 30.04 30.04 15 BKN250 None
2018-07-22 06:00 72 54 76 53 140° 10 - 30.04 30.04 15 BKN250 None
2018-07-22 05:00 73 55 77 53 140° 10 - 30.03 30.04 15 BKN250 None
2018-07-22 04:00 75 57 78 53 150° 12 - 30.04 30.04 15 BKN250 None
2018-07-22 03:00 79 57 80 47 160° 13 - 30.03 30.03 15 BKN250 None
2018-07-22 02:00 79 59 80 50 110° 6 - 30.02 30.02 15 FEW150 BKN250 None
2018-07-22 01:00 81 57 81 44 140° 7 - 30.02 30.02 15 FEW150 SCT250 None

Support USWX by starting your Amazon purchase here.